createdAt,value
2019-05-06T00:00:09.940Z,100718.11
2019-05-06T00:02:43.703Z,100719.41
2019-05-06T00:05:15.489Z,100719.41
2019-05-06T00:07:54.441Z,100722.44
2019-05-06T00:10:30.968Z,100721.55
2019-05-06T00:13:04.561Z,100722.89
2019-05-06T00:15:36.478Z,100725.92
2019-05-06T00:18:08.283Z,100722.44
2019-05-06T00:20:40.135Z,100721.61
2019-05-06T00:23:17.539Z,100719.52
2019-05-06T00:26:05.410Z,100722.16
2019-05-06T00:28:44.795Z,100723.56
2019-05-06T00:31:18.479Z,100726.82
2019-05-06T00:33:50.163Z,100726.16
2019-05-06T00:36:23.702Z,100728.83
2019-05-06T00:38:58.448Z,100724.11
2019-05-06T00:41:36.286Z,100730.17
2019-05-06T00:44:07.466Z,100727.97
2019-05-06T00:46:39.134Z,100731.45
2019-05-06T00:49:11.152Z,100727.55
2019-05-06T00:51:43.985Z,100730.71
2019-05-06T00:54:19.507Z,100723.41
2019-05-06T00:56:51.575Z,100731.28
2019-05-06T00:59:23.865Z,100733.13
2019-05-06T01:01:55.783Z,100728.37
2019-05-06T01:04:56.123Z,100734.95
2019-05-06T01:07:30.555Z,100729.72
2019-05-06T01:10:03.800Z,100726.75
2019-05-06T01:12:38.947Z,100737.50
2019-05-06T01:15:15.707Z,100737.50
2019-05-06T01:17:47.381Z,100739.67
2019-05-06T01:20:19.107Z,100736.98
2019-05-06T01:22:51.003Z,100745.25
2019-05-06T01:25:23.741Z,100741.74
2019-05-06T01:27:55.935Z,100746.53
2019-05-06T01:30:28.238Z,100744.80
2019-05-06T01:33:00.248Z,100747.00
2019-05-06T01:35:32.554Z,100745.66
2019-05-06T01:38:24.322Z,100748.70
2019-05-06T01:41:14.902Z,100751.31
2019-05-06T01:43:46.793Z,100749.14
2019-05-06T01:46:18.605Z,100746.97
2019-05-06T01:48:50.469Z,100750.45
2019-05-06T01:51:24.123Z,100749.11
2019-05-06T01:53:55.985Z,100746.88
2019-05-06T01:56:27.856Z,100753.39
2019-05-06T01:58:59.521Z,100755.55
2019-05-06T02:01:31.391Z,100757.28
2019-05-06T02:04:04.473Z,100756.33
2019-05-06T02:06:36.602Z,100757.12
2019-05-06T02:09:15.918Z,100759.23
2019-05-06T02:11:48.326Z,100758.28
2019-05-06T02:14:20.080Z,100755.66
2019-05-06T02:16:54.340Z,100759.07
2019-05-06T02:19:25.442Z,100763.38
2019-05-06T02:22:06.997Z,100765.64
2019-05-06T02:24:48.759Z,100765.29
2019-05-06T02:27:20.480Z,100762.26
2019-05-06T02:30:11.073Z,100767.02
2019-05-06T02:33:06.304Z,100773.55
2019-05-06T02:35:45.359Z,100763.53
2019-05-06T02:38:35.711Z,100768.73
2019-05-06T02:41:03.515Z,100769.98
2019-05-06T02:43:35.834Z,100773.48
2019-05-06T02:46:07.499Z,100766.13
2019-05-06T02:48:55.147Z,100764.40
2019-05-06T02:51:28.478Z,100763.09
2019-05-06T02:54:03.079Z,100765.73
2019-05-06T02:56:33.856Z,100763.59
2019-05-06T02:59:06.656Z,100762.29
2019-05-06T03:01:38.347Z,100763.66
2019-05-06T03:04:12.953Z,100767.59
2019-05-06T03:06:44.767Z,100773.27
2019-05-06T03:09:16.684Z,100777.22
2019-05-06T03:11:48.366Z,100775.94
2019-05-06T03:14:23.168Z,100772.94
2019-05-06T03:16:54.166Z,100776.86
2019-05-06T03:19:27.858Z,100774.28
2019-05-06T03:22:18.388Z,100777.34
2019-05-06T03:25:06.882Z,100771.72
2019-05-06T03:27:38.335Z,100774.43
2019-05-06T03:30:15.823Z,100784.89
2019-05-06T03:33:20.278Z,100774.88
2019-05-06T03:35:33.193Z,100782.72
2019-05-06T03:37:53.343Z,100779.66
2019-05-06T03:40:24.294Z,100779.19
2019-05-06T03:42:55.985Z,100783.48
2019-05-06T03:45:46.639Z,100781.67
2019-05-06T03:48:24.017Z,100791.62
2019-05-06T03:50:56.257Z,100783.78
2019-05-06T03:53:33.303Z,100787.70
2019-05-06T03:56:04.554Z,100781.64
2019-05-06T03:58:38.467Z,100780.34
2019-05-06T04:01:12.948Z,100777.24
2019-05-06T04:03:48.679Z,100784.64
2019-05-06T04:06:17.212Z,100788.56
2019-05-06T04:08:52.892Z,100789.87
2019-05-06T04:11:25.058Z,100799.53
2019-05-06T04:13:58.895Z,100794.42
2019-05-06T04:16:39.632Z,100803.61
2019-05-06T04:19:23.885Z,100796.20
2019-05-06T04:22:04.840Z,100804.05
2019-05-06T04:24:49.555Z,100806.28
2019-05-06T04:28:03.319Z,100809.82
2019-05-06T04:30:35.076Z,100811.51
2019-05-06T04:33:06.878Z,100811.03
2019-05-06T04:35:39.092Z,100811.42
2019-05-06T04:38:13.885Z,100818.31
2019-05-06T04:40:44.541Z,100810.56
2019-05-06T04:43:17.028Z,100823.94
2019-05-06T04:45:49.168Z,100827.73
2019-05-06T04:48:23.837Z,100827.62
2019-05-06T04:50:55.061Z,100831.52
2019-05-06T04:53:27.195Z,100829.70
2019-05-06T04:55:59.093Z,100832.70
2019-05-06T04:58:33.604Z,100835.25
2019-05-06T05:01:07.120Z,100836.56
2019-05-06T05:03:38.894Z,100841.77
2019-05-06T05:06:13.528Z,100832.25
2019-05-06T05:08:44.934Z,100845.69
2019-05-06T05:11:38.847Z,100844.32
2019-05-06T05:14:25.972Z,100844.20
2019-05-06T05:17:12.737Z,100854.52
2019-05-06T05:19:44.376Z,100853.94
2019-05-06T05:22:16.370Z,100856.38
2019-05-06T05:24:48.221Z,100862.31
2019-05-06T05:27:21.908Z,100858.64
2019-05-06T05:29:53.535Z,100865.09
2019-05-06T05:32:26.976Z,100865.89
2019-05-06T05:34:59.041Z,100877.54
2019-05-06T05:37:32.709Z,100881.76
2019-05-06T05:40:04.188Z,100878.24
2019-05-06T05:42:52.222Z,100882.17
2019-05-06T05:45:32.861Z,100885.66
2019-05-06T05:48:09.792Z,100889.09
2019-05-06T05:50:43.040Z,100888.66
2019-05-06T05:53:14.826Z,100893.00
2019-05-06T05:55:47.389Z,100895.55
2019-05-06T05:58:19.709Z,100894.30
2019-05-06T06:00:52.116Z,100891.69
2019-05-06T06:03:24.297Z,100890.28
2019-05-06T06:05:56.035Z,100890.59
2019-05-06T06:08:27.958Z,100888.78
2019-05-06T06:11:32.703Z,100893.02
2019-05-06T06:14:08.241Z,100895.92
2019-05-06T06:16:59.276Z,100886.59
2019-05-06T06:19:42.551Z,100898.17
2019-05-06T06:22:17.675Z,100898.90
2019-05-06T06:24:49.536Z,100894.08
2019-05-06T06:27:22.352Z,100890.56
2019-05-06T06:29:54.299Z,100888.80
2019-05-06T06:32:28.073Z,100894.00
2019-05-06T06:35:18.842Z,100894.73
2019-05-06T06:38:06.590Z,100901.94
2019-05-06T06:40:38.331Z,100901.73
2019-05-06T06:43:15.178Z,100892.80
2019-05-06T06:45:47.280Z,100896.48
2019-05-06T06:48:19.114Z,100890.60
2019-05-06T06:50:52.226Z,100894.70
2019-05-06T06:53:24.053Z,100893.72
2019-05-06T06:56:14.759Z,100895.67
2019-05-06T06:59:12.790Z,100885.10
2019-05-06T07:01:53.924Z,100888.37
2019-05-06T07:04:39.307Z,100883.64
2019-05-06T07:07:13.110Z,100887.18
2019-05-06T07:09:45.259Z,100879.86
2019-05-06T07:12:17.024Z,100884.59
2019-05-06T07:14:52.264Z,100891.82
2019-05-06T07:17:23.776Z,100888.69
2019-05-06T07:19:57.790Z,100889.55
2019-05-06T07:22:36.825Z,100892.56
2019-05-06T07:25:12.822Z,100895.00
2019-05-06T07:27:44.645Z,100890.11
2019-05-06T07:30:16.940Z,100895.86
2019-05-06T07:32:48.643Z,100889.73
2019-05-06T07:35:22.404Z,100893.73
2019-05-06T07:37:54.510Z,100896.62
2019-05-06T07:40:26.932Z,100896.17
2019-05-06T07:43:02.282Z,100895.77
2019-05-06T07:45:47.878Z,100901.22
2019-05-06T07:48:19.537Z,100904.40
2019-05-06T07:50:52.096Z,100905.71
2019-05-06T07:53:23.911Z,100906.66
2019-05-06T07:55:56.130Z,100902.17
2019-05-06T07:58:27.815Z,100897.50
2019-05-06T08:00:59.576Z,100899.03
2019-05-06T08:03:32.983Z,100896.04
2019-05-06T08:06:04.843Z,100896.62
2019-05-06T08:08:36.546Z,100895.79
2019-05-06T08:11:08.896Z,100899.31
2019-05-06T08:13:43.204Z,100897.66
2019-05-06T08:16:15.847Z,100895.44
2019-05-06T08:18:47.696Z,100898.07
2019-05-06T08:21:22.835Z,100898.20
2019-05-06T08:23:54.550Z,100899.62
2019-05-06T08:26:26.463Z,100894.50
2019-05-06T08:28:59.207Z,100893.88
2019-05-06T08:31:32.806Z,100895.16
2019-05-06T08:34:04.644Z,100893.36
2019-05-06T08:36:56.230Z,100892.78
2019-05-06T08:39:27.926Z,100893.88
2019-05-06T08:41:59.745Z,100892.83
2019-05-06T08:44:32.320Z,100896.09
2019-05-06T08:47:04.196Z,100891.66
2019-05-06T08:49:53.479Z,100889.93
2019-05-06T08:52:29.658Z,100887.10
2019-05-06T08:55:02.869Z,100880.67
2019-05-06T08:57:34.876Z,100876.95
2019-05-06T09:00:07.594Z,100883.41
2019-05-06T09:02:39.254Z,100879.16
2019-05-06T09:05:14.314Z,100876.64
2019-05-06T09:07:47.349Z,100879.28
2019-05-06T09:10:19.094Z,100879.83
2019-05-06T09:12:52.529Z,100882.52
2019-05-06T09:15:24.954Z,100880.34
2019-05-06T09:17:56.956Z,100882.52
2019-05-06T09:20:29.068Z,100880.42
2019-05-06T09:23:04.506Z,100882.70
2019-05-06T09:25:34.656Z,100878.30
2019-05-06T09:28:23.374Z,100872.03
2019-05-06T09:31:05.502Z,100872.23
2019-05-06T09:33:43.571Z,100864.42
2019-05-06T09:36:15.343Z,100864.06
2019-05-06T09:38:47.248Z,100857.81
2019-05-06T09:41:19.275Z,100857.65
2019-05-06T09:43:52.878Z,100864.88
2019-05-06T09:46:25.336Z,100867.18
2019-05-06T09:49:12.636Z,100876.20
2019-05-06T09:51:44.097Z,100866.30
2019-05-06T09:54:23.550Z,100871.30
2019-05-06T09:57:08.608Z,100869.83
2019-05-06T09:59:42.203Z,100873.11
2019-05-06T10:02:14.157Z,100863.75
2019-05-06T10:04:46.561Z,100866.08
2019-05-06T10:07:18.309Z,100857.86
2019-05-06T10:09:52.370Z,100861.02
2019-05-06T10:12:23.816Z,100855.16
2019-05-06T10:14:55.478Z,100856.11
2019-05-06T10:17:27.164Z,100858.86
2019-05-06T10:19:59.645Z,100856.28
2019-05-06T10:22:32.495Z,100861.26
2019-05-06T10:25:11.904Z,100860.98
2019-05-06T10:28:02.729Z,100864.30
2019-05-06T10:30:34.817Z,100864.48
2019-05-06T10:33:10.317Z,100864.88
2019-05-06T10:35:42.857Z,100861.16
2019-05-06T10:38:42.377Z,100859.89
2019-05-06T10:41:22.200Z,100859.55
2019-05-06T10:44:17.500Z,100856.68
2019-05-06T10:46:49.232Z,100854.05
2019-05-06T10:49:22.684Z,100855.06
2019-05-06T10:52:02.076Z,100855.92
2019-05-06T10:54:33.250Z,100856.62
2019-05-06T10:57:23.475Z,100849.09
2019-05-06T10:59:55.336Z,100850.42
2019-05-06T11:02:52.405Z,100847.66
2019-05-06T11:05:24.225Z,100851.39
2019-05-06T11:07:56.084Z,100843.56
2019-05-06T11:10:35.103Z,100846.78
2019-05-06T11:13:03.432Z,100849.08
2019-05-06T11:15:35.200Z,100845.98
2019-05-06T11:18:07.273Z,100848.31
2019-05-06T11:20:39.062Z,100852.91
2019-05-06T11:23:10.968Z,100849.81
2019-05-06T11:25:43.329Z,100850.56
2019-05-06T11:28:38.068Z,100844.52
2019-05-06T11:31:23.031Z,100847.77
2019-05-06T11:34:13.121Z,100849.81
2019-05-06T11:36:52.428Z,100848.09
2019-05-06T11:39:24.421Z,100843.23
2019-05-06T11:42:15.381Z,100849.07
2019-05-06T11:44:32.346Z,100840.59
2019-05-06T11:47:04.380Z,100832.34
2019-05-06T11:49:36.170Z,100834.63
2019-05-06T11:52:07.850Z,100834.41
2019-05-06T11:54:42.125Z,100839.92
2019-05-06T11:57:13.456Z,100834.89
2019-05-06T11:59:45.530Z,100832.48
2019-05-06T12:02:20.767Z,100834.45
2019-05-06T12:04:52.952Z,100835.60
2019-05-06T12:07:25.227Z,100835.60
2019-05-06T12:09:56.940Z,100831.56
2019-05-06T12:12:28.663Z,100832.48
2019-05-06T12:15:03.485Z,100834.38
2019-05-06T12:17:35.955Z,100832.66
2019-05-06T12:20:08.478Z,100839.95
2019-05-06T12:22:42.408Z,100833.67
2019-05-06T12:25:15.493Z,100838.25
2019-05-06T12:27:47.581Z,100831.09
2019-05-06T12:30:24.447Z,100827.20
2019-05-06T12:33:23.906Z,100822.98
2019-05-06T12:35:55.677Z,100820.66
2019-05-06T12:38:30.931Z,100823.23
2019-05-06T12:41:03.355Z,100819.30
2019-05-06T12:43:54.160Z,100825.09
2019-05-06T12:46:33.231Z,100823.98
2019-05-06T12:49:05.153Z,100830.90
2019-05-06T12:51:37.164Z,100830.28
2019-05-06T12:54:08.859Z,100822.81
2019-05-06T12:56:42.499Z,100829.98
2019-05-06T12:59:14.577Z,100826.02
2019-05-06T13:01:46.946Z,100828.97
2019-05-06T13:04:18.901Z,100826.09
2019-05-06T13:06:52.196Z,100826.95
2019-05-06T13:09:24.334Z,100820.19
2019-05-06T13:11:56.322Z,100813.13
2019-05-06T13:14:28.131Z,100812.66
2019-05-06T13:17:02.570Z,100814.67
2019-05-06T13:19:34.136Z,100808.53
2019-05-06T13:22:06.755Z,100808.23
2019-05-06T13:24:38.449Z,100805.44
2019-05-06T13:27:12.604Z,100808.52
2019-05-06T13:29:44.415Z,100808.22
2019-05-06T13:32:18.458Z,100806.59
2019-05-06T13:34:52.544Z,100809.70
2019-05-06T13:37:24.257Z,100808.52
2019-05-06T13:39:56.056Z,100808.12
2019-05-06T13:42:29.590Z,100807.64
2019-05-06T13:45:02.899Z,100805.40
2019-05-06T13:47:52.933Z,100802.44
2019-05-06T13:50:28.305Z,100806.01
2019-05-06T13:53:11.175Z,100802.47
2019-05-06T13:55:39.089Z,100796.99
2019-05-06T13:58:12.509Z,100792.52
2019-05-06T14:00:44.482Z,100797.03
2019-05-06T14:03:17.614Z,100797.16
2019-05-06T14:05:49.356Z,100796.16
2019-05-06T14:08:22.184Z,100791.52
2019-05-06T14:10:59.618Z,100791.45
2019-05-06T14:13:28.034Z,100788.03
2019-05-06T14:15:59.905Z,100795.35
2019-05-06T14:18:33.277Z,100790.52
2019-05-06T14:21:05.664Z,100781.73
2019-05-06T14:23:37.573Z,100777.77
2019-05-06T14:26:17.464Z,100782.98
2019-05-06T14:28:53.707Z,100783.34
2019-05-06T14:31:28.146Z,100780.48
2019-05-06T14:34:01.701Z,100790.55
2019-05-06T14:36:33.566Z,100784.89
2019-05-06T14:39:08.032Z,100782.06
2019-05-06T14:41:44.506Z,100792.83
2019-05-06T14:44:15.652Z,100788.88
2019-05-06T14:47:15.389Z,100789.46
2019-05-06T14:49:47.756Z,100793.79
2019-05-06T14:52:19.521Z,100787.53
2019-05-06T14:55:15.271Z,100792.10
2019-05-06T14:57:46.644Z,100797.09
2019-05-06T15:00:22.874Z,100792.91
2019-05-06T15:02:53.850Z,100787.08
2019-05-06T15:05:26.335Z,100796.27
2019-05-06T15:07:58.139Z,100794.56
2019-05-06T15:10:32.133Z,100790.05
2019-05-06T15:13:03.605Z,100793.92
2019-05-06T15:15:35.455Z,100798.28
2019-05-06T15:18:07.227Z,100798.66
2019-05-06T15:20:39.848Z,100800.20
2019-05-06T15:23:13.062Z,100793.20
2019-05-06T15:25:45.022Z,100798.35
2019-05-06T15:28:16.960Z,100796.47
2019-05-06T15:30:56.951Z,100787.56
2019-05-06T15:33:33.353Z,100793.47
2019-05-06T15:36:15.769Z,100784.59
2019-05-06T15:38:48.048Z,100785.45
2019-05-06T15:41:19.865Z,100782.11
2019-05-06T15:43:51.624Z,100783.05
2019-05-06T15:46:27.260Z,100783.44
2019-05-06T15:48:59.116Z,100777.14
2019-05-06T15:51:38.049Z,100782.80
2019-05-06T15:54:09.923Z,100783.56
2019-05-06T15:56:42.378Z,100777.71
2019-05-06T15:59:15.084Z,100771.67
2019-05-06T16:01:46.817Z,100774.00
2019-05-06T16:04:18.501Z,100770.64
2019-05-06T16:06:52.899Z,100780.28
2019-05-06T16:09:25.444Z,100777.96
2019-05-06T16:11:57.307Z,100776.89
2019-05-06T16:14:29.056Z,100786.61
2019-05-06T16:17:01.085Z,100775.25
2019-05-06T16:19:33.728Z,100778.10
2019-05-06T16:22:06.466Z,100783.70
2019-05-06T16:24:44.185Z,100784.34
2019-05-06T16:27:16.223Z,100789.36
2019-05-06T16:29:47.990Z,100784.12
2019-05-06T16:32:21.846Z,100790.50
2019-05-06T16:34:53.260Z,100789.81
2019-05-06T16:37:25.975Z,100787.95
2019-05-06T16:39:58.333Z,100780.89
2019-05-06T16:42:30.312Z,100787.39
2019-05-06T16:45:06.871Z,100792.12
2019-05-06T16:47:39.169Z,100787.62
2019-05-06T16:50:14.560Z,100789.15
2019-05-06T16:52:46.993Z,100791.09
2019-05-06T16:55:24.951Z,100789.08
2019-05-06T16:58:08.862Z,100790.92
2019-05-06T17:00:42.840Z,100785.38
2019-05-06T17:03:28.307Z,100787.78
2019-05-06T17:06:17.089Z,100791.51
2019-05-06T17:08:49.570Z,100785.90
2019-05-06T17:11:28.030Z,100794.80
2019-05-06T17:13:54.872Z,100788.77
2019-05-06T17:16:26.645Z,100795.03
2019-05-06T17:18:59.126Z,100789.91
2019-05-06T17:21:33.247Z,100795.25
2019-05-06T17:24:05.034Z,100794.55
2019-05-06T17:26:37.049Z,100801.27
2019-05-06T17:29:26.711Z,100800.05
2019-05-06T17:32:14.366Z,100795.63
2019-05-06T17:34:49.389Z,100797.88
2019-05-06T17:37:39.540Z,100797.47
2019-05-06T17:40:15.941Z,100793.28
2019-05-06T17:42:47.747Z,100803.48
2019-05-06T17:45:38.751Z,100798.67
2019-05-06T17:48:23.110Z,100799.63
2019-05-06T17:51:13.612Z,100800.61
2019-05-06T17:53:48.267Z,100798.19
2019-05-06T17:56:22.295Z,100803.98
2019-05-06T17:58:54.634Z,100811.59
2019-05-06T18:01:45.314Z,100809.08
2019-05-06T18:04:17.097Z,100807.45
2019-05-06T18:06:49.239Z,100812.73
2019-05-06T18:09:22.298Z,100815.37
2019-05-06T18:11:58.960Z,100808.38
2019-05-06T18:14:28.278Z,100817.20
2019-05-06T18:17:00.139Z,100811.16
2019-05-06T18:19:33.525Z,100810.70
2019-05-06T18:22:29.762Z,100811.53
2019-05-06T18:25:05.756Z,100815.98
2019-05-06T18:27:37.772Z,100813.80
2019-05-06T18:30:22.315Z,100817.36
2019-05-06T18:32:45.529Z,100816.10
2019-05-06T18:35:17.405Z,100817.63
2019-05-06T18:37:49.214Z,100819.87
2019-05-06T18:40:23.224Z,100818.30
2019-05-06T18:42:54.801Z,100819.68
2019-05-06T18:45:27.354Z,100813.70
2019-05-06T18:47:59.197Z,100816.48
2019-05-06T18:50:31.157Z,100820.95
2019-05-06T18:53:03.150Z,100818.84
2019-05-06T18:55:36.770Z,100815.95
2019-05-06T18:58:08.852Z,100825.23
2019-05-06T19:00:40.684Z,100821.38
2019-05-06T19:03:12.976Z,100825.13
2019-05-06T19:06:18.479Z,100830.21
2019-05-06T19:09:29.740Z,100831.70
2019-05-06T19:12:03.550Z,100837.28
2019-05-06T19:14:35.737Z,100836.88
2019-05-06T19:17:08.175Z,100841.95
2019-05-06T19:19:42.443Z,100845.38
2019-05-06T19:22:14.199Z,100846.03
2019-05-06T19:24:46.100Z,100856.35
2019-05-06T19:27:17.965Z,100853.51
2019-05-06T19:29:49.924Z,100860.23
2019-05-06T19:32:42.492Z,100863.02
2019-05-06T19:35:42.799Z,100856.89
2019-05-06T19:39:04.735Z,100860.98
2019-05-06T19:41:35.591Z,100858.59
2019-05-06T19:44:07.557Z,100866.67
2019-05-06T19:47:20.986Z,100862.01
2019-05-06T19:50:42.916Z,100867.32
2019-05-06T19:53:43.089Z,100867.05
2019-05-06T19:56:15.120Z,100864.60
2019-05-06T19:58:47.409Z,100864.30
2019-05-06T20:01:19.335Z,100862.98
2019-05-06T20:03:58.719Z,100860.03
2019-05-06T20:06:58.159Z,100857.99
2019-05-06T20:10:14.721Z,100855.14
2019-05-06T20:13:08.753Z,100854.92
2019-05-06T20:15:42.709Z,100853.84
2019-05-06T20:18:15.321Z,100851.35
2019-05-06T20:20:48.870Z,100848.77
2019-05-06T20:23:23.069Z,100854.16
2019-05-06T20:26:25.091Z,100856.61
2019-05-06T20:29:04.868Z,100854.79
2019-05-06T20:32:18.930Z,100852.33
2019-05-06T20:34:51.931Z,100854.78
2019-05-06T20:37:23.695Z,100851.27
2019-05-06T20:39:55.503Z,100848.48
2019-05-06T20:43:14.041Z,100847.05
2019-05-06T20:45:35.976Z,100846.06
2019-05-06T20:48:07.969Z,100848.65
2019-05-06T20:50:40.206Z,100851.30
2019-05-06T20:53:12.319Z,100853.87
2019-05-06T20:55:44.290Z,100855.58
2019-05-06T20:58:16.231Z,100852.06
2019-05-06T21:01:12.737Z,100858.54
2019-05-06T21:04:40.062Z,100855.80
2019-05-06T21:07:13.882Z,100856.95
2019-05-06T21:09:45.659Z,100853.65
2019-05-06T21:12:17.529Z,100850.76
2019-05-06T21:14:49.465Z,100850.90
2019-05-06T21:17:22.865Z,100854.05
2019-05-06T21:19:54.784Z,100855.88
2019-05-06T21:22:26.945Z,100854.56
2019-05-06T21:24:59.047Z,100852.73
2019-05-06T21:28:35.737Z,100856.63
2019-05-06T21:31:08.339Z,100853.56
2019-05-06T21:33:54.705Z,100849.02
2019-05-06T21:36:35.905Z,100852.60
2019-05-06T21:39:24.150Z,100846.25
2019-05-06T21:41:54.797Z,100847.73
2019-05-06T21:44:26.557Z,100847.33
2019-05-06T21:46:58.261Z,100843.56
2019-05-06T21:49:29.998Z,100840.64
2019-05-06T21:52:02.319Z,100846.33
2019-05-06T21:56:02.983Z,100843.84
2019-05-06T21:59:25.265Z,100846.14
2019-05-06T22:02:00.069Z,100846.83
2019-05-06T22:04:33.640Z,100847.72
2019-05-06T22:07:05.536Z,100843.72
2019-05-06T22:09:37.379Z,100841.42
2019-05-06T22:12:09.278Z,100840.53
2019-05-06T22:14:42.266Z,100840.94
2019-05-06T22:17:58.503Z,100847.07
2019-05-06T22:20:34.682Z,100841.87
2019-05-06T22:23:06.931Z,100845.93
2019-05-06T22:25:38.791Z,100837.73
2019-05-06T22:28:11.983Z,100843.09
2019-05-06T22:30:43.788Z,100835.69
2019-05-06T22:33:15.886Z,100837.41
2019-05-06T22:35:54.900Z,100840.44
2019-05-06T22:38:26.899Z,100851.36
2019-05-06T22:41:02.318Z,100838.75
2019-05-06T22:43:38.033Z,100851.84
2019-05-06T22:46:09.678Z,100844.02
2019-05-06T22:49:53.874Z,100845.02
2019-05-06T22:52:02.768Z,100840.80
2019-05-06T22:54:34.689Z,100844.38
2019-05-06T22:57:06.429Z,100839.20
2019-05-06T23:00:42.494Z,100846.03
2019-05-06T23:03:04.171Z,100840.66
2019-05-06T23:05:36.388Z,100846.64
2019-05-06T23:08:08.076Z,100840.58
2019-05-06T23:10:42.125Z,100843.61
2019-05-06T23:13:13.246Z,100837.87
2019-05-06T23:15:45.009Z,100838.70
2019-05-06T23:18:16.753Z,100834.30
2019-05-06T23:21:35.028Z,100833.44
2019-05-06T23:24:41.155Z,100827.52
2019-05-06T23:27:48.868Z,100832.34
2019-05-06T23:30:45.465Z,100831.91
2019-05-06T23:33:17.357Z,100834.55
2019-05-06T23:35:51.501Z,100837.44
2019-05-06T23:39:17.610Z,100834.57
2019-05-06T23:45:25.747Z,100836.39
2019-05-06T23:48:52.309Z,100840.16
2019-05-06T23:52:17.754Z,100840.80
